Time,TemperatureF,DewpointF,PressureIn,WindDirection,WindDirectionDegrees,WindSpeedMPH,WindSpeedGustMPH,Humidity,HourlyPrecipIn,Conditions,Clouds,dailyrainin,SoftwareType,DateUTC
2013-01-15 00:04:00,42.7,4.0,30.35,NE,39,2.0,7.0,20,0.00,,,0.00,weatherlink.com 1.10,2013-01-15 08:04:00,
2013-01-15 00:19:00,42.7,4.0,30.35,NE,42,0.0,4.0,20,0.00,,,0.00,weatherlink.com 1.10,2013-01-15 08:19:00,
2013-01-15 00:34:00,42.3,5.0,30.36,ESE,103,0.0,7.0,21,0.00,,,0.00,weatherlink.com 1.10,2013-01-15 08:34:00,
2013-01-15 00:49:00,42.1,5.0,30.36,East,92,0.0,5.0,21,0.00,,,0.00,weatherlink.com 1.10,2013-01-15 08:49:00,
2013-01-15 01:05:00,42.0,5.0,30.36,SE,140,0.0,3.0,21,0.00,,,0.00,weatherlink.com 1.10,2013-01-15 09:05:00,
2013-01-15 01:20:00,41.1,6.0,30.37,NE,48,0.0,2.0,23,0.00,,,0.00,weatherlink.com 1.10,2013-01-15 09:20:00,
2013-01-15 01:35:00,41.7,5.0,30.38,ENE,57,0.0,8.0,22,0.00,,,0.00,weatherlink.com 1.10,2013-01-15 09:35:00,
2013-01-15 01:50:00,41.7,5.0,30.38,ENE,60,0.0,0.0,22,0.00,,,0.00,weatherlink.com 1.10,2013-01-15 09:50:00,
2013-01-15 02:05:00,41.5,5.0,30.38,East,81,0.0,5.0,22,0.00,,,0.00,weatherlink.com 1.10,2013-01-15 10:05:00,
2013-01-15 02:20:00,41.4,6.0,30.38,NE,40,0.0,5.0,23,0.00,,,0.00,weatherlink.com 1.10,2013-01-15 10:20:00,
2013-01-15 02:35:00,41.7,6.0,30.38,ENE,65,0.0,5.0,23,0.00,,,0.00,weatherlink.com 1.10,2013-01-15 10:35:00,
2013-01-15 02:50:00,41.0,7.0,30.37,North,360,0.0,2.0,24,0.00,,,0.00,weatherlink.com 1.10,2013-01-15 10:50:00,
2013-01-15 03:05:00,41.3,6.0,30.37,ENE,60,0.0,3.0,23,0.00,,,0.00,weatherlink.com 1.10,2013-01-15 11:05:00,
2013-01-15 03:20:00,40.4,7.0,30.37,NNE,13,0.0,2.0,25,0.00,,,0.00,weatherlink.com 1.10,2013-01-15 11:20:00,
2013-01-15 03:35:00,40.4,7.0,30.37,NE,35,0.0,3.0,25,0.00,,,0.00,weatherlink.com 1.10,2013-01-15 11:35:00,
2013-01-15 03:50:00,40.7,7.0,30.37,NE,35,0.0,3.0,25,0.00,,,0.00,weatherlink.com 1.10,2013-01-15 11:50:00,
2013-01-15 04:05:00,41.0,8.0,30.37,NNE,18,0.0,2.0,25,0.00,,,0.00,weatherlink.com 1.10,2013-01-15 12:05:00,
2013-01-15 04:20:00,41.3,9.0,30.37,East,83,0.0,0.0,26,0.00,,,0.00,weatherlink.com 1.10,2013-01-15 12:20:00,
2013-01-15 04:35:00,41.2,9.0,30.36,East,83,0.0,0.0,26,0.00,,,0.00,weatherlink.com 1.10,2013-01-15 12:35:00,
2013-01-15 04:50:00,41.6,7.0,30.36,SSE,149,0.0,2.0,24,0.00,,,0.00,weatherlink.com 1.10,2013-01-15 12:50:00,
2013-01-15 05:05:00,41.8,7.0,30.36,SSE,149,0.0,0.0,24,0.00,,,0.00,weatherlink.com 1.10,2013-01-15 13:05:00,
2013-01-15 05:20:00,41.6,8.0,30.36,SSE,149,0.0,0.0,25,0.00,,,0.00,weatherlink.com 1.10,2013-01-15 13:20:00,
2013-01-15 05:35:00,41.4,8.0,30.36,SE,144,0.0,0.0,25,0.00,,,0.00,weatherlink.com 1.10,2013-01-15 13:35:00,
2013-01-15 05:50:00,41.7,9.0,30.37,SE,132,0.0,0.0,26,0.00,,,0.00,weatherlink.com 1.10,2013-01-15 13:50:00,
2013-01-15 06:05:00,41.7,9.0,30.37,SE,132,0.0,0.0,26,0.00,,,0.00,weatherlink.com 1.10,2013-01-15 14:05:00,
2013-01-15 06:20:00,41.2,9.0,30.38,SE,132,0.0,0.0,27,0.00,,,0.00,weatherlink.com 1.10,2013-01-15 14:20:00,
2013-01-15 06:35:00,41.0,10.0,30.38,SE,131,0.0,1.0,28,0.00,,,0.00,weatherlink.com 1.10,2013-01-15 14:35:00,
2013-01-15 06:50:00,41.1,9.0,30.38,East,82,0.0,2.0,27,0.00,,,0.00,weatherlink.com 1.10,2013-01-15 14:50:00,
2013-01-15 07:05:00,41.5,10.0,30.39,ENE,78,0.0,3.0,27,0.00,,,0.00,weatherlink.com 1.10,2013-01-15 15:05:00,
2013-01-15 07:20:00,41.5,11.0,30.39,North,355,0.0,3.0,29,0.00,,,0.00,weatherlink.com 1.10,2013-01-15 15:20:00,
2013-01-15 07:35:00,42.7,10.0,30.40,NE,41,3.0,4.0,26,0.00,,,0.00,weatherlink.com 1.10,2013-01-15 15:35:00,
2013-01-15 07:50:00,45.1,11.0,30.41,NNE,32,4.0,11.0,25,0.00,,,0.00,weatherlink.com 1.10,2013-01-15 15:50:00,
2013-01-15 08:05:00,47.5,10.0,30.41,NE,42,2.0,7.0,22,0.00,,,0.00,weatherlink.com 1.10,2013-01-15 16:05:00,
2013-01-15 08:20:00,48.6,10.0,30.42,NE,34,2.0,9.0,21,0.00,,,0.00,weatherlink.com 1.10,2013-01-15 16:20:00,
2013-01-15 08:35:00,49.4,12.0,30.42,NE,40,5.0,8.0,22,0.00,,,0.00,weatherlink.com 1.10,2013-01-15 16:35:00,
2013-01-15 08:50:00,50.3,13.0,30.42,East,94,8.0,10.0,22,0.00,,,0.00,weatherlink.com 1.10,2013-01-15 16:50:00,
2013-01-15 09:05:00,51.4,14.0,30.43,East,86,5.0,12.0,22,0.00,,,0.00,weatherlink.com 1.10,2013-01-15 17:05:00,
2013-01-15 09:21:00,52.1,13.0,30.43,ENE,74,9.0,16.0,21,0.00,,,0.00,weatherlink.com 1.10,2013-01-15 17:21:00,
2013-01-15 09:36:00,53.1,14.0,30.43,ENE,61,7.0,16.0,21,0.00,,,0.00,weatherlink.com 1.10,2013-01-15 17:36:00,
2013-01-15 09:51:00,53.6,14.0,30.43,NNE,31,6.0,16.0,21,0.00,,,0.00,weatherlink.com 1.10,2013-01-15 17:51:00,
2013-01-15 10:06:00,54.2,15.0,30.43,ENE,71,10.0,16.0,21,0.00,,,0.00,weatherlink.com 1.10,2013-01-15 18:06:00,
2013-01-15 10:21:00,54.6,15.0,30.43,ENE,59,3.0,13.0,21,0.00,,,0.00,weatherlink.com 1.10,2013-01-15 18:21:00,
2013-01-15 10:36:00,55.8,15.0,30.42,NNE,15,7.0,16.0,20,0.00,,,0.00,weatherlink.com 1.10,2013-01-15 18:36:00,
2013-01-15 10:51:00,56.6,17.0,30.41,NE,42,16.0,16.0,21,0.00,,,0.00,weatherlink.com 1.10,2013-01-15 18:51:00,
2013-01-15 11:06:00,57.8,19.0,30.40,North,5,1.0,13.0,22,0.00,,,0.00,weatherlink.com 1.10,2013-01-15 19:06:00,
2013-01-15 11:21:00,58.1,18.0,30.38,NNW,334,6.0,13.0,21,0.00,,,0.00,weatherlink.com 1.10,2013-01-15 19:21:00,
2013-01-15 11:36:00,58.8,19.0,30.37,NE,35,3.0,14.0,21,0.00,,,0.00,weatherlink.com 1.10,2013-01-15 19:36:00,
2013-01-15 11:51:00,58.9,19.0,30.36,NNE,26,9.0,18.0,21,0.00,,,0.00,weatherlink.com 1.10,2013-01-15 19:51:00,
2013-01-15 12:06:00,59.3,20.0,30.35,North,5,5.0,12.0,22,0.00,,,0.00,weatherlink.com 1.10,2013-01-15 20:06:00,
2013-01-15 12:21:00,60.0,21.0,30.35,ENE,61,0.0,14.0,22,0.00,,,0.00,weatherlink.com 1.10,2013-01-15 20:21:00,
2013-01-15 12:36:00,60.2,20.0,30.34,NE,49,6.0,13.0,21,0.00,,,0.00,weatherlink.com 1.10,2013-01-15 20:36:00,
2013-01-15 12:51:00,60.9,22.0,30.33,ENE,76,4.0,11.0,22,0.00,,,0.00,weatherlink.com 1.10,2013-01-15 20:51:00,
2013-01-15 13:06:00,63.1,23.0,30.33,North,360,2.0,12.0,22,0.00,,,0.00,weatherlink.com 1.10,2013-01-15 21:06:00,
2013-01-15 13:21:00,64.1,24.0,30.33,NNE,30,0.0,11.0,22,0.00,,,0.00,weatherlink.com 1.10,2013-01-15 21:21:00,
2013-01-15 13:37:00,63.7,23.0,30.32,North,11,4.0,12.0,21,0.00,,,0.00,weatherlink.com 1.10,2013-01-15 21:37:00,
2013-01-15 13:51:00,63.0,22.0,30.32,NNW,336,8.0,17.0,21,0.00,,,0.00,weatherlink.com 1.10,2013-01-15 21:51:00,
2013-01-15 14:06:00,63.1,23.0,30.32,NE,41,7.0,15.0,22,0.00,,,0.00,weatherlink.com 1.10,2013-01-15 22:06:00,
2013-01-15 14:21:00,62.2,22.0,30.32,NE,38,5.0,16.0,21,0.00,,,0.00,weatherlink.com 1.10,2013-01-15 22:21:00,
2013-01-15 14:36:00,62.0,23.0,30.32,ENE,58,0.0,18.0,22,0.00,,,0.00,weatherlink.com 1.10,2013-01-15 22:36:00,
2013-01-15 15:06:00,63.1,22.0,30.32,North,355,6.0,15.0,21,0.00,,,0.00,weatherlink.com 1.10,2013-01-15 23:06:00,
2013-01-15 15:21:00,63.0,21.0,30.32,NE,35,3.0,9.0,20,0.00,,,0.00,weatherlink.com 1.10,2013-01-15 23:21:00,
2013-01-15 15:36:00,62.1,25.0,30.32,ENE,69,7.0,11.0,24,0.00,,,0.00,weatherlink.com 1.10,2013-01-15 23:36:00,
2013-01-15 15:51:00,60.8,25.0,30.32,North,5,0.0,6.0,26,0.00,,,0.00,weatherlink.com 1.10,2013-01-15 23:51:00,
2013-01-15 16:06:00,59.0,25.0,30.32,NNW,331,0.0,7.0,27,0.00,,,0.00,weatherlink.com 1.10,2013-01-16 00:06:00,
2013-01-15 16:21:00,58.0,25.0,30.32,NNW,338,0.0,5.0,28,0.00,,,0.00,weatherlink.com 1.10,2013-01-16 00:21:00,
2013-01-15 16:36:00,56.8,26.0,30.32,NNW,333,0.0,3.0,31,0.00,,,0.00,weatherlink.com 1.10,2013-01-16 00:36:00,
2013-01-15 16:51:00,55.4,26.0,30.33,NNW,333,2.0,3.0,32,0.00,,,0.00,weatherlink.com 1.10,2013-01-16 00:51:00,
2013-01-15 17:07:00,54.1,28.0,30.33,NNW,333,0.0,0.0,37,0.00,,,0.00,weatherlink.com 1.10,2013-01-16 01:07:00,
2013-01-15 17:22:00,52.1,29.0,30.33,NNW,333,0.0,0.0,41,0.00,,,0.00,weatherlink.com 1.10,2013-01-16 01:22:00,
2013-01-15 17:37:00,50.4,30.0,30.34,NNW,333,0.0,0.0,46,0.00,,,0.00,weatherlink.com 1.10,2013-01-16 01:37:00,
2013-01-15 17:52:00,49.1,28.0,30.34,NNW,333,0.0,0.0,45,0.00,,,0.00,weatherlink.com 1.10,2013-01-16 01:52:00,
2013-01-15 18:07:00,47.8,28.0,30.34,NNW,333,0.0,0.0,46,0.00,,,0.00,weatherlink.com 1.10,2013-01-16 02:07:00,
2013-01-15 18:22:00,47.2,30.0,30.34,NNW,333,0.0,0.0,52,0.00,,,0.00,weatherlink.com 1.10,2013-01-16 02:22:00,
2013-01-15 18:37:00,47.4,31.0,30.34,NNW,331,0.0,2.0,53,0.00,,,0.00,weatherlink.com 1.10,2013-01-16 02:37:00,
2013-01-15 18:52:00,48.0,27.0,30.34,North,355,2.0,7.0,44,0.00,,,0.00,weatherlink.com 1.10,2013-01-16 02:52:00,
2013-01-15 19:07:00,49.4,25.0,30.34,NNE,14,0.0,0.0,39,0.00,,,0.00,weatherlink.com 1.10,2013-01-16 03:07:00,
2013-01-15 19:22:00,50.6,24.0,30.34,NNE,24,2.0,9.0,35,0.00,,,0.00,weatherlink.com 1.10,2013-01-16 03:22:00,
2013-01-15 19:37:00,51.2,24.0,30.34,SE,144,0.0,2.0,34,0.00,,,0.00,weatherlink.com 1.10,2013-01-16 03:37:00,
2013-01-15 19:52:00,50.8,24.0,30.35,SE,144,0.0,2.0,35,0.00,,,0.00,weatherlink.com 1.10,2013-01-16 03:52:00,
2013-01-15 20:07:00,49.6,23.0,30.34,North,349,0.0,1.0,35,0.00,,,0.00,weatherlink.com 1.10,2013-01-16 04:07:00,
2013-01-15 20:23:00,50.0,22.0,30.35,ENE,62,0.0,2.0,33,0.00,,,0.00,weatherlink.com 1.10,2013-01-16 04:23:00,
2013-01-15 20:37:00,51.9,21.0,30.35,ENE,61,7.0,11.0,30,0.00,,,0.00,weatherlink.com 1.10,2013-01-16 04:37:00,
2013-01-15 20:52:00,52.8,21.0,30.34,NE,43,1.0,13.0,29,0.00,,,0.00,weatherlink.com 1.10,2013-01-16 04:52:00,
2013-01-15 21:07:00,52.9,20.0,30.34,NE,47,6.0,7.0,28,0.00,,,0.00,weatherlink.com 1.10,2013-01-16 05:07:00,
2013-01-15 21:22:00,52.4,20.0,30.35,ENE,74,1.0,6.0,28,0.00,,,0.00,weatherlink.com 1.10,2013-01-16 05:22:00,
2013-01-15 21:37:00,51.7,20.0,30.35,ENE,59,0.0,5.0,29,0.00,,,0.00,weatherlink.com 1.10,2013-01-16 05:37:00,
2013-01-15 21:52:00,50.7,21.0,30.35,ENE,59,0.0,0.0,31,0.00,,,0.00,weatherlink.com 1.10,2013-01-16 05:52:00,
2013-01-15 22:07:00,49.4,21.0,30.35,ENE,59,0.0,0.0,33,0.00,,,0.00,weatherlink.com 1.10,2013-01-16 06:07:00,
2013-01-15 22:22:00,49.4,21.0,30.35,ENE,59,0.0,0.0,33,0.00,,,0.00,weatherlink.com 1.10,2013-01-16 06:22:00,
2013-01-15 22:37:00,48.9,21.0,30.35,ENE,59,0.0,0.0,33,0.00,,,0.00,weatherlink.com 1.10,2013-01-16 06:37:00,
2013-01-15 22:52:00,49.3,21.0,30.35,ENE,63,0.0,3.0,33,0.00,,,0.00,weatherlink.com 1.10,2013-01-16 06:52:00,
2013-01-15 23:07:00,49.2,21.0,30.35,ENE,63,0.0,0.0,33,0.00,,,0.00,weatherlink.com 1.10,2013-01-16 07:07:00,
2013-01-15 23:22:00,49.3,21.0,30.35,ENE,63,0.0,0.0,33,0.00,,,0.00,weatherlink.com 1.10,2013-01-16 07:22:00,
2013-01-15 23:37:00,49.1,21.0,30.35,NE,50,1.0,7.0,33,0.00,,,0.00,weatherlink.com 1.10,2013-01-16 07:37:00,
2013-01-15 23:52:00,50.5,21.0,30.35,NE,49,7.0,10.0,32,0.00,,,0.00,weatherlink.com 1.10,2013-01-16 07:52:00,